^^
Grace C. Lehan Memorial Weather Station Historical Data
Daily Summary for August 10, 2022 Units:  English    Metric   Both
Daily Weekly Monthly Yearly
  High: Low: Average:
Temperature: 78.7 °F 77.3 °F 77.9 °F
Dew Point: 66 °F 65.3 °F 65.7 °F
Humidity: 68% 64% 66%
Wind Speed: 2.3mph 0mph 0.4mph
Wind Gust: 7mph - -
Wind- - NW
Pressure: 29.95 in 29.93 in -
Precipitation: 0.00 in    
 
 
Tabular Data for August 10, 2022
Time Temperature Dew Point Pressure Wind Wind Speed Wind Gust Humidity Rainfall Rate (Hourly) solar
00:09 78.7 °F 65.5 °F 29.94 in Calm     64% 0.00 in 0 W/m2
00:14 78.6 °F 65.4 °F 29.94 in NW 0.1 mph 3 mph 64% 0.00 in 0 W/m2
00:19 78.5 °F 65.4 °F 29.93 in NW 0.8 mph 6 mph 64% 0.00 in 0 W/m2
00:24 78.5 °F 65.3 °F 29.93 in NW 0.5 mph 6 mph 64% 0.00 in 0 W/m2
00:29 78.4 °F 65.4 °F 29.93 in NW 0.6 mph 6 mph 64.4% 0.00 in 0 W/m2
00:34 78.3 °F 65.6 °F 29.94 in NW 0.6 mph 6 mph 65% 0.00 in 0 W/m2
00:39 78.2 °F 65.5 °F 29.94 in Calm   5 mph 65% 0.00 in 0 W/m2
00:44 78.2 °F 65.4 °F 29.94 in NW 0.6 mph 6 mph 65% 0.00 in 0 W/m2
00:49 78.1 °F 65.6 °F 29.94 in Calm   6 mph 65.5% 0.00 in 0 W/m2
00:54 78 °F 65.8 °F 29.94 in NW 0.4 mph 6 mph 66% 0.00 in 0 W/m2
00:59 78 °F 65.6 °F 29.94 in NW 0.2 mph 6 mph 65.8% 0.00 in 0 W/m2
01:04 77.9 °F 65.7 °F 29.94 in Calm   6 mph 66.1% 0.00 in 0 W/m2
01:09 77.9 °F 65.9 °F 29.94 in Calm   2 mph 66.7% 0.00 in 0 W/m2
01:14 77.9 °F 65.8 °F 29.94 in Calm   2 mph 66.5% 0.00 in 0 W/m2
01:19 77.8 °F 65.7 °F 29.94 in North 0.3 mph 3 mph 66.3% 0.00 in 0 W/m2
01:24 77.8 °F 65.6 °F 29.95 in Calm   3 mph 66.2% 0.00 in 0 W/m2
01:29 77.7 °F 65.9 °F 29.95 in Calm   3 mph 67% 0.00 in 0 W/m2
01:34 77.6 °F 65.8 °F 29.94 in NNE 0.1 mph 3 mph 67% 0.00 in 0 W/m2
01:39 77.6 °F 65.8 °F 29.94 in North 0.7 mph 4 mph 67% 0.00 in 0 W/m2
01:44 77.5 °F 66 °F 29.94 in NNW 0.3 mph 4 mph 67.7% 0.00 in 0 W/m2
01:49 77.5 °F 65.7 °F 29.94 in NW 2.3 mph 7 mph 67.2% 0.00 in 0 W/m2
01:54 77.4 °F 66 °F 29.94 in NNW 0.5 mph 7 mph 68% 0.00 in 0 W/m2
01:59 77.3 °F 65.9 °F 29.95 in NNW 0.3 mph 7 mph 68% 0.00 in 0 W/m2
02:03 77.3 °F 65.9 °F 29.95 in NW 1.4 mph 7 mph 68% 0.00 in 0 W/m2
Hartford County Weather
Compliments of Weather Underground - 2 mb